sensor_id;sensor_type;location;lat;lon;timestamp;pressure;altitude;pressure_sealevel;temperature;humidity
48041;BME280;33815;48.386;11.738;2023-04-10T00:02:11;97253.53;;;-1.12;100.00
48041;BME280;33815;48.386;11.738;2023-04-10T00:04:36;97250.38;;;-1.18;100.00
48041;BME280;33815;48.386;11.738;2023-04-10T00:07:01;97258.19;;;-1.22;100.00
48041;BME280;33815;48.386;11.738;2023-04-10T00:09:27;97256.50;;;-1.23;100.00
48041;BME280;33815;48.386;11.738;2023-04-10T00:11:53;97257.53;;;-1.27;100.00
48041;BME280;33815;48.386;11.738;2023-04-10T00:14:18;97250.16;;;-1.34;100.00
48041;BME280;33815;48.386;11.738;2023-04-10T00:16:48;97248.75;;;-1.42;100.00
48041;BME280;33815;48.386;11.738;2023-04-10T00:19:13;97255.44;;;-1.39;100.00
48041;BME280;33815;48.386;11.738;2023-04-10T00:21:38;97257.13;;;-1.38;100.00
48041;BME280;33815;48.386;11.738;2023-04-10T00:24:03;97251.13;;;-1.37;100.00
48041;BME280;33815;48.386;11.738;2023-04-10T00:26:29;97251.13;;;-1.37;100.00
48041;BME280;33815;48.386;11.738;2023-04-10T00:28:54;97254.63;;;-1.40;100.00
48041;BME280;33815;48.386;11.738;2023-04-10T00:31:20;97245.66;;;-1.50;100.00
48041;BME280;33815;48.386;11.738;2023-04-10T00:33:45;97246.72;;;-1.56;100.00
48041;BME280;33815;48.386;11.738;2023-04-10T00:36:10;97242.63;;;-1.60;100.00
48041;BME280;33815;48.386;11.738;2023-04-10T00:38:36;97235.22;;;-1.67;100.00
48041;BME280;33815;48.386;11.738;2023-04-10T00:41:02;97241.28;;;-1.70;100.00
48041;BME280;33815;48.386;11.738;2023-04-10T00:43:27;97236.22;;;-1.72;100.00
48041;BME280;33815;48.386;11.738;2023-04-10T00:45:52;97226.91;;;-1.73;100.00
48041;BME280;33815;48.386;11.738;2023-04-10T00:48:18;97237.25;;;-1.76;100.00
48041;BME280;33815;48.386;11.738;2023-04-10T00:50:45;97226.31;;;-1.79;100.00
48041;BME280;33815;48.386;11.738;2023-04-10T00:53:10;97227.00;;;-1.76;100.00
48041;BME280;33815;48.386;11.738;2023-04-10T00:55:36;97217.53;;;-1.72;100.00
48041;BME280;33815;48.386;11.738;2023-04-10T00:58:01;97234.28;;;-1.65;100.00
48041;BME280;33815;48.386;11.738;2023-04-10T01:00:26;97232.91;;;-1.74;100.00
48041;BME280;33815;48.386;11.738;2023-04-10T01:02:53;97235.59;;;-1.77;100.00
48041;BME280;33815;48.386;11.738;2023-04-10T01:05:19;97226.19;;;-1.76;100.00
48041;BME280;33815;48.386;11.738;2023-04-10T01:10:30;97243.47;;;-1.83;100.00
48041;BME280;33815;48.386;11.738;2023-04-10T01:13:08;97230.16;;;-1.91;100.00
48041;BME280;33815;48.386;11.738;2023-04-10T01:15:46;97243.66;;;-1.87;100.00
48041;BME280;33815;48.386;11.738;2023-04-10T01:18:38;97245.41;;;-1.90;100.00
48041;BME280;33815;48.386;11.738;2023-04-10T01:21:07;97242.09;;;-1.92;100.00
48041;BME280;33815;48.386;11.738;2023-04-10T01:29:29;97234.56;;;-1.95;100.00
48041;BME280;33815;48.386;11.738;2023-04-10T01:32:14;97231.81;;;-1.90;100.00
48041;BME280;33815;48.386;11.738;2023-04-10T01:34:46;97224.75;;;-1.83;100.00
48041;BME280;33815;48.386;11.738;2023-04-10T01:37:23;97225.97;;;-1.94;100.00
48041;BME280;33815;48.386;11.738;2023-04-10T01:39:53;97226.16;;;-1.98;100.00
48041;BME280;33815;48.386;11.738;2023-04-10T01:42:23;97222.94;;;-2.03;100.00
48041;BME280;33815;48.386;11.738;2023-04-10T01:44:50;97216.94;;;-2.02;100.00
48041;BME280;33815;48.386;11.738;2023-04-10T01:47:18;97216.19;;;-2.04;100.00
48041;BME280;33815;48.386;11.738;2023-04-10T01:49:45;97214.38;;;-2.02;100.00
48041;BME280;33815;48.386;11.738;2023-04-10T01:52:12;97176.88;;;-2.24;100.00
48041;BME280;33815;48.386;11.738;2023-04-10T01:54:38;97201.69;;;-2.04;100.00
48041;BME280;33815;48.386;11.738;2023-04-10T01:57:03;97208.34;;;-2.00;100.00
48041;BME280;33815;48.386;11.738;2023-04-10T01:59:29;97199.31;;;-2.09;100.00
48041;BME280;33815;48.386;11.738;2023-04-10T02:01:59;97207.66;;;-2.05;100.00
48041;BME280;33815;48.386;11.738;2023-04-10T02:04:25;97200.91;;;-2.06;100.00
48041;BME280;33815;48.386;11.738;2023-04-10T02:09:57;97207.97;;;-2.13;100.00
48041;BME280;33815;48.386;11.738;2023-04-10T02:12:45;97203.03;;;-2.17;100.00
48041;BME280;33815;48.386;11.738;2023-04-10T02:15:10;97209.22;;;-2.25;100.00
48041;BME280;33815;48.386;11.738;2023-04-10T02:17:37;97215.34;;;-2.29;100.00
48041;BME280;33815;48.386;11.738;2023-04-10T02:20:04;97202.75;;;-2.33;100.00
48041;BME280;33815;48.386;11.738;2023-04-10T02:22:31;97212.75;;;-2.27;100.00
48041;BME280;33815;48.386;11.738;2023-04-10T02:24:57;97215.00;;;-2.19;100.00
48041;BME280;33815;48.386;11.738;2023-04-10T02:27:32;97203.19;;;-2.22;100.00
48041;BME280;33815;48.386;11.738;2023-04-10T02:29:57;97170.97;;;-2.48;100.00
48041;BME280;33815;48.386;11.738;2023-04-10T02:32:23;97207.78;;;-2.32;100.00
48041;BME280;33815;48.386;11.738;2023-04-10T02:34:48;97205.53;;;-2.39;100.00
48041;BME280;33815;48.386;11.738;2023-04-10T02:37:13;97208.97;;;-2.41;100.00
48041;BME280;33815;48.386;11.738;2023-04-10T02:39:39;97207.16;;;-2.38;100.00
48041;BME280;33815;48.386;11.738;2023-04-10T02:42:04;97205.78;;;-2.47;100.00
48041;BME280;33815;48.386;11.738;2023-04-10T02:44:29;97172.69;;;-2.74;100.00
48041;BME280;33815;48.386;11.738;2023-04-10T02:46:54;97214.38;;;-2.50;100.00
48041;BME280;33815;48.386;11.738;2023-04-10T02:49:20;97182.03;;;-2.73;100.00
48041;BME280;33815;48.386;11.738;2023-04-10T02:51:45;97219.53;;;-2.51;100.00
48041;BME280;33815;48.386;11.738;2023-04-10T02:54:10;97206.69;;;-2.48;100.00
48041;BME280;33815;48.386;11.738;2023-04-10T02:56:36;97185.75;;;-2.58;100.00
48041;BME280;33815;48.386;11.738;2023-04-10T02:59:01;97185.03;;;-2.62;100.00
48041;BME280;33815;48.386;11.738;2023-04-10T03:01:26;97228.66;;;-2.44;100.00
48041;BME280;33815;48.386;11.738;2023-04-10T03:03:51;97192.91;;;-2.68;100.00
48041;BME280;33815;48.386;11.738;2023-04-10T03:06:17;97229.50;;;-2.44;100.00
48041;BME280;33815;48.386;11.738;2023-04-10T03:08:42;97223.72;;;-2.49;100.00
48041;BME280;33815;48.386;11.738;2023-04-10T03:11:07;97212.72;;;-2.51;100.00
48041;BME280;33815;48.386;11.738;2023-04-10T03:13:33;97222.09;;;-2.51;100.00
48041;BME280;33815;48.386;11.738;2023-04-10T03:15:58;97219.34;;;-2.45;100.00
48041;BME280;33815;48.386;11.738;2023-04-10T03:18:24;97217.91;;;-2.52;100.00
48041;BME280;33815;48.386;11.738;2023-04-10T03:20:49;97184.75;;;-2.78;100.00
48041;BME280;33815;48.386;11.738;2023-04-10T03:23:15;97182.28;;;-2.81;100.00
48041;BME280;33815;48.386;11.738;2023-04-10T03:25:40;97219.81;;;-2.59;100.00
48041;BME280;33815;48.386;11.738;2023-04-10T03:28:06;97212.22;;;-2.61;100.00
48041;BME280;33815;48.386;11.738;2023-04-10T03:30:31;97212.69;;;-2.49;100.00
48041;BME280;33815;48.386;11.738;2023-04-10T03:32:57;97193.56;;;-2.63;100.00
48041;BME280;33815;48.386;11.738;2023-04-10T03:35:22;97209.28;;;-2.50;100.00
48041;BME280;33815;48.386;11.738;2023-04-10T03:37:47;97188.50;;;-2.64;100.00
48041;BME280;33815;48.386;11.738;2023-04-10T03:40:13;97200.44;;;-2.65;100.00
48041;BME280;33815;48.386;11.738;2023-04-10T03:42:38;97212.22;;;-2.61;100.00
48041;BME280;33815;48.386;11.738;2023-04-10T03:45:04;97212.00;;;-2.54;100.00
48041;BME280;33815;48.386;11.738;2023-04-10T03:47:30;97217.03;;;-2.53;100.00
48041;BME280;33815;48.386;11.738;2023-04-10T03:49:56;97211.06;;;-2.52;100.00
48041;BME280;33815;48.386;11.738;2023-04-10T03:52:21;97210.13;;;-2.49;100.00
48041;BME280;33815;48.386;11.738;2023-04-10T03:54:46;97219.47;;;-2.48;100.00
48041;BME280;33815;48.386;11.738;2023-04-10T03:57:12;97207.69;;;-2.52;100.00
48041;BME280;33815;48.386;11.738;2023-04-10T03:59:37;97217.66;;;-2.46;100.00
48041;BME280;33815;48.386;11.738;2023-04-10T04:02:02;97216.84;;;-2.47;100.00
48041;BME280;33815;48.386;11.738;2023-04-10T04:04:28;97212.69;;;-2.49;100.00
48041;BME280;33815;48.386;11.738;2023-04-10T04:06:55;97211.81;;;-2.48;100.00
48041;BME280;33815;48.386;11.738;2023-04-10T04:09:20;97211.19;;;-2.55;100.00
48041;BME280;33815;48.386;11.738;2023-04-10T04:11:45;97207.94;;;-2.60;100.00
48041;BME280;33815;48.386;11.738;2023-04-10T04:14:11;97217.22;;;-2.58;100.00
48041;BME280;33815;48.386;11.738;2023-04-10T04:16:36;97212.22;;;-2.61;100.00
48041;BME280;33815;48.386;11.738;2023-04-10T04:19:01;97219.94;;;-2.62;100.00
48041;BME280;33815;48.386;11.738;2023-04-10T04:21:26;97213.28;;;-2.66;100.00
48041;BME280;33815;48.386;11.738;2023-04-10T04:23:52;97220.06;;;-2.67;100.00
48041;BME280;33815;48.386;11.738;2023-04-10T04:26:17;97205.56;;;-2.65;100.00
48041;BME280;33815;48.386;11.738;2023-04-10T04:28:42;97214.88;;;-2.64;100.00
48041;BME280;33815;48.386;11.738;2023-04-10T04:31:08;97218.84;;;-2.55;100.00
48041;BME280;33815;48.386;11.738;2023-04-10T04:33:33;97214.72;;;-2.59;100.00
48041;BME280;33815;48.386;11.738;2023-04-10T04:35:59;97208.22;;;-2.68;100.00
48041;BME280;33815;48.386;11.738;2023-04-10T04:38:24;97176.72;;;-2.92;100.00
48041;BME280;33815;48.386;11.738;2023-04-10T04:40:50;97223.53;;;-2.68;100.00
48041;BME280;33815;48.386;11.738;2023-04-10T04:43:15;97228.63;;;-2.68;100.00
48041;BME280;33815;48.386;11.738;2023-04-10T04:45:40;97226.78;;;-2.64;100.00
48041;BME280;33815;48.386;11.738;2023-04-10T04:48:06;97232.47;;;-2.56;100.00
48041;BME280;33815;48.386;11.738;2023-04-10T04:50:31;97235.84;;;-2.55;100.00
48041;BME280;33815;48.386;11.738;2023-04-10T04:52:56;97239.91;;;-2.50;100.00
48041;BME280;33815;48.386;11.738;2023-04-10T04:55:21;97240.47;;;-2.42;100.00
48041;BME280;33815;48.386;11.738;2023-04-10T04:57:47;97236.94;;;-2.37;100.00
48041;BME280;33815;48.386;11.738;2023-04-10T05:00:12;97228.22;;;-2.32;100.00
48041;BME280;33815;48.386;11.738;2023-04-10T05:02:38;97193.41;;;-2.58;100.00
48041;BME280;33815;48.386;11.738;2023-04-10T05:05:03;97225.72;;;-2.33;100.00
48041;BME280;33815;48.386;11.738;2023-04-10T05:07:29;97234.13;;;-2.30;100.00
48041;BME280;33815;48.386;11.738;2023-04-10T05:09:55;97246.59;;;-2.22;100.00
48041;BME280;33815;48.386;11.738;2023-04-10T05:12:20;97228.00;;;-2.26;100.00
48041;BME280;33815;48.386;11.738;2023-04-10T05:14:46;97231.28;;;-2.22;100.00
48041;BME280;33815;48.386;11.738;2023-04-10T05:17:11;97243.66;;;-2.11;100.00
48041;BME280;33815;48.386;11.738;2023-04-10T05:19:36;97200.25;;;-2.35;100.00
48041;BME280;33815;48.386;11.738;2023-04-10T05:22:01;97237.69;;;-2.10;100.00
48041;BME280;33815;48.386;11.738;2023-04-10T05:24:27;97236.00;;;-2.11;100.00
48041;BME280;33815;48.386;11.738;2023-04-10T05:26:52;97241.78;;;-2.06;100.00
48041;BME280;33815;48.386;11.738;2023-04-10T05:29:17;97232.44;;;-2.07;100.00
48041;BME280;33815;48.386;11.738;2023-04-10T05:31:42;97235.69;;;-2.03;100.00
48041;BME280;33815;48.386;11.738;2023-04-10T05:34:08;97238.09;;;-1.99;100.00
48041;BME280;33815;48.386;11.738;2023-04-10T05:36:34;97234.50;;;-1.93;100.00
48041;BME280;33815;48.386;11.738;2023-04-10T05:38:59;97204.78;;;-1.96;100.00
48041;BME280;33815;48.386;11.738;2023-04-10T05:41:24;97248.69;;;-1.62;100.00
48041;BME280;33815;48.386;11.738;2023-04-10T05:43:50;97251.59;;;-1.49;100.00
48041;BME280;33815;48.386;11.738;2023-04-10T05:46:15;97253.31;;;-1.50;100.00
48041;BME280;33815;48.386;11.738;2023-04-10T05:48:40;97241.84;;;-1.40;100.00
48041;BME280;33815;48.386;11.738;2023-04-10T05:51:06;97208.94;;;-1.49;100.00
48041;BME280;33815;48.386;11.738;2023-04-10T05:53:31;97242.00;;;-1.22;100.00
48041;BME280;33815;48.386;11.738;2023-04-10T05:55:57;97246.81;;;-1.14;100.00
48041;BME280;33815;48.386;11.738;2023-04-10T05:58:24;97225.59;;;-1.16;100.00
48041;BME280;33815;48.386;11.738;2023-04-10T06:00:50;97203.47;;;-1.17;100.00
48041;BME280;33815;48.386;11.738;2023-04-10T06:03:15;97246.78;;;-0.92;100.00
48041;BME280;33815;48.386;11.738;2023-04-10T06:05:41;97247.09;;;-0.79;100.00
48041;BME280;33815;48.386;11.738;2023-04-10T06:08:06;97256.84;;;-0.67;100.00
48041;BME280;33815;48.386;11.738;2023-04-10T06:10:31;97254.66;;;-0.56;100.00
48041;BME280;33815;48.386;11.738;2023-04-10T06:12:56;97251.38;;;-0.39;100.00
48041;BME280;33815;48.386;11.738;2023-04-10T06:15:22;97254.09;;;-0.23;100.00
48041;BME280;33815;48.386;11.738;2023-04-10T06:17:47;97246.91;;;-0.14;100.00
48041;BME280;33815;48.386;11.738;2023-04-10T06:20:12;97248.47;;;0.09;100.00
48041;BME280;33815;48.386;11.738;2023-04-10T06:22:38;97254.53;;;0.44;100.00
48041;BME280;33815;48.386;11.738;2023-04-10T06:25:04;97223.75;;;0.27;100.00
48041;BME280;33815;48.386;11.738;2023-04-10T06:27:29;97253.56;;;0.66;100.00
48041;BME280;33815;48.386;11.738;2023-04-10T06:29:55;97234.91;;;0.62;100.00
48041;BME280;33815;48.386;11.738;2023-04-10T06:32:20;97253.19;;;0.91;100.00
48041;BME280;33815;48.386;11.738;2023-04-10T06:34:46;97251.25;;;0.96;100.00
48041;BME280;33815;48.386;11.738;2023-04-10T06:37:11;97223.25;;;0.92;100.00
48041;BME280;33815;48.386;11.738;2023-04-10T06:39:36;97241.16;;;1.28;100.00
48041;BME280;33815;48.386;11.738;2023-04-10T06:42:03;97211.75;;;1.16;100.00
48041;BME280;33815;48.386;11.738;2023-04-10T06:44:28;97236.94;;;1.61;100.00
48041;BME280;33815;48.386;11.738;2023-04-10T06:46:54;97241.31;;;1.76;100.00
48041;BME280;33815;48.386;11.738;2023-04-10T06:49:19;97231.78;;;1.78;100.00
48041;BME280;33815;48.386;11.738;2023-04-10T06:51:44;97244.16;;;1.87;100.00
48041;BME280;33815;48.386;11.738;2023-04-10T06:54:12;97240.22;;;2.14;100.00
48041;BME280;33815;48.386;11.738;2023-04-10T06:56:37;97231.59;;;2.31;100.00
48041;BME280;33815;48.386;11.738;2023-04-10T06:59:02;97196.41;;;2.31;100.00
48041;BME280;33815;48.386;11.738;2023-04-10T07:01:27;97226.44;;;2.63;100.00
48041;BME280;33815;48.386;11.738;2023-04-10T07:03:53;97229.16;;;2.76;100.00
48041;BME280;33815;48.386;11.738;2023-04-10T07:06:18;97233.38;;;3.07;100.00
48041;BME280;33815;48.386;11.738;2023-04-10T07:08:43;97230.59;;;2.96;100.00
48041;BME280;33815;48.386;11.738;2023-04-10T07:11:08;97227.13;;;3.27;100.00
48041;BME280;33815;48.386;11.738;2023-04-10T07:13:34;97189.66;;;3.21;100.00
48041;BME280;33815;48.386;11.738;2023-04-10T07:15:59;97224.22;;;3.91;100.00
48041;BME280;33815;48.386;11.738;2023-04-10T07:18:25;97211.44;;;3.75;100.00
48041;BME280;33815;48.386;11.738;2023-04-10T07:20:51;97220.88;;;4.18;100.00
48041;BME280;33815;48.386;11.738;2023-04-10T07:23:16;97217.38;;;4.19;100.00
48041;BME280;33815;48.386;11.738;2023-04-10T07:25:41;97217.78;;;4.40;100.00
48041;BME280;33815;48.386;11.738;2023-04-10T07:28:07;97215.13;;;4.69;100.00
48041;BME280;33815;48.386;11.738;2023-04-10T07:30:32;97215.00;;;5.10;100.00
48041;BME280;33815;48.386;11.738;2023-04-10T07:32:57;97212.16;;;5.28;100.00
48041;BME280;33815;48.386;11.738;2023-04-10T07:35:22;97219.59;;;5.32;100.00
48041;BME280;33815;48.386;11.738;2023-04-10T07:37:47;97225.22;;;6.04;100.00
48041;BME280;33815;48.386;11.738;2023-04-10T07:40:16;97222.94;;;6.73;100.00
48041;BME280;33815;48.386;11.738;2023-04-10T07:42:41;97222.06;;;7.91;95.41
48041;BME280;33815;48.386;11.738;2023-04-10T07:45:07;97215.94;;;8.81;87.52
48041;BME280;33815;48.386;11.738;2023-04-10T07:47:32;97215.00;;;9.35;83.53
48041;BME280;33815;48.386;11.738;2023-04-10T07:49:57;97210.16;;;9.52;79.80
48041;BME280;33815;48.386;11.738;2023-04-10T07:52:23;97211.72;;;9.85;79.92
48041;BME280;33815;48.386;11.738;2023-04-10T07:54:48;97218.22;;;10.01;77.17
48041;BME280;33815;48.386;11.738;2023-04-10T07:57:13;97212.16;;;9.90;76.05
48041;BME280;33815;48.386;11.738;2023-04-10T07:59:40;97206.63;;;9.53;76.65
48041;BME280;33815;48.386;11.738;2023-04-10T08:02:05;97210.50;;;9.58;77.71
48041;BME280;33815;48.386;11.738;2023-04-10T08:04:30;97211.84;;;9.32;78.23
48041;BME280;33815;48.386;11.738;2023-04-10T08:06:56;97205.28;;;8.95;77.69
48041;BME280;33815;48.386;11.738;2023-04-10T08:09:21;97219.78;;;8.54;80.75
48041;BME280;33815;48.386;11.738;2023-04-10T08:11:46;97208.50;;;8.21;82.64
48041;BME280;33815;48.386;11.738;2023-04-10T08:14:12;97206.34;;;8.26;84.47
48041;BME280;33815;48.386;11.738;2023-04-10T08:16:37;97206.09;;;8.63;85.82
48041;BME280;33815;48.386;11.738;2023-04-10T08:19:03;97206.78;;;8.65;83.27
48041;BME280;33815;48.386;11.738;2023-04-10T08:21:29;97205.00;;;8.98;81.47
48041;BME280;33815;48.386;11.738;2023-04-10T08:23:57;97202.16;;;9.01;80.24
48041;BME280;33815;48.386;11.738;2023-04-10T08:26:24;97200.22;;;9.15;78.82
48041;BME280;33815;48.386;11.738;2023-04-10T08:28:51;97197.34;;;9.18;78.84
48041;BME280;33815;48.386;11.738;2023-04-10T08:31:18;97202.50;;;9.29;81.16
48041;BME280;33815;48.386;11.738;2023-04-10T08:33:43;97197.59;;;9.57;82.20
48041;BME280;33815;48.386;11.738;2023-04-10T08:36:09;97195.78;;;9.78;77.27
48041;BME280;33815;48.386;11.738;2023-04-10T08:38:36;97199.75;;;9.52;75.12
48041;BME280;33815;48.386;11.738;2023-04-10T08:41:02;97193.97;;;9.48;76.69
48041;BME280;33815;48.386;11.738;2023-04-10T08:43:27;97196.91;;;9.86;77.41
48041;BME280;33815;48.386;11.738;2023-04-10T08:45:52;97197.44;;;9.80;75.40
48041;BME280;33815;48.386;11.738;2023-04-10T08:48:18;97196.22;;;9.84;74.65
48041;BME280;33815;48.386;11.738;2023-04-10T08:50:48;97186.94;;;9.91;72.58
48041;BME280;33815;48.386;11.738;2023-04-10T08:53:14;97189.09;;;9.86;73.79
48041;BME280;33815;48.386;11.738;2023-04-10T08:55:41;97186.47;;;10.17;74.52
48041;BME280;33815;48.386;11.738;2023-04-10T08:58:10;97188.78;;;10.41;71.98
48041;BME280;33815;48.386;11.738;2023-04-10T09:00:37;97177.94;;;10.45;71.80
48041;BME280;33815;48.386;11.738;2023-04-10T09:03:04;97179.88;;;10.63;70.04
48041;BME280;33815;48.386;11.738;2023-04-10T09:05:34;97181.81;;;10.71;69.56
48041;BME280;33815;48.386;11.738;2023-04-10T09:07:59;97153.94;;;10.71;70.39
48041;BME280;33815;48.386;11.738;2023-04-10T09:10:24;97181.53;;;11.13;68.72
48041;BME280;33815;48.386;11.738;2023-04-10T09:12:50;97173.09;;;11.39;68.66
48041;BME280;33815;48.386;11.738;2023-04-10T09:15:16;97139.94;;;11.11;68.68
48041;BME280;33815;48.386;11.738;2023-04-10T09:17:58;97137.53;;;11.47;67.88
48041;BME280;33815;48.386;11.738;2023-04-10T09:20:25;97166.03;;;11.69;66.77
48041;BME280;33815;48.386;11.738;2023-04-10T09:22:51;97155.34;;;11.62;61.97
48041;BME280;33815;48.386;11.738;2023-04-10T09:25:32;97159.44;;;11.64;64.49
48041;BME280;33815;48.386;11.738;2023-04-10T09:28:05;97157.13;;;11.89;63.25
48041;BME280;33815;48.386;11.738;2023-04-10T09:30:35;97142.69;;;11.67;58.67
48041;BME280;33815;48.386;11.738;2023-04-10T09:33:01;97123.63;;;11.85;61.71
48041;BME280;33815;48.386;11.738;2023-04-10T09:35:37;97123.59;;;11.57;58.09
48041;BME280;33815;48.386;11.738;2023-04-10T09:38:13;97146.69;;;11.99;57.54
48041;BME280;33815;48.386;11.738;2023-04-10T09:40:39;97142.66;;;12.05;57.72
48041;BME280;33815;48.386;11.738;2023-04-10T09:43:25;97124.22;;;12.06;54.93
48041;BME280;33815;48.386;11.738;2023-04-10T09:45:53;97100.66;;;11.88;58.56
48041;BME280;33815;48.386;11.738;2023-04-10T09:48:20;97132.00;;;12.62;58.70
48041;BME280;33815;48.386;11.738;2023-04-10T09:50:46;97120.47;;;12.91;54.71
48041;BME280;33815;48.386;11.738;2023-04-10T09:53:16;97119.53;;;12.74;52.84
48041;BME280;33815;48.386;11.738;2023-04-10T09:55:43;97081.22;;;12.91;51.69
48041;BME280;33815;48.386;11.738;2023-04-10T09:58:09;97105.13;;;13.40;51.79
48041;BME280;33815;48.386;11.738;2023-04-10T10:00:40;97079.75;;;13.14;52.50
48041;BME280;33815;48.386;11.738;2023-04-10T10:03:08;97104.75;;;13.09;51.76
48041;BME280;33815;48.386;11.738;2023-04-10T10:05:36;97077.75;;;13.34;55.65
48041;BME280;33815;48.386;11.738;2023-04-10T10:08:03;97083.38;;;13.40;54.19
48041;BME280;33815;48.386;11.738;2023-04-10T10:10:29;97096.34;;;13.49;51.10
48041;BME280;33815;48.386;11.738;2023-04-10T10:12:59;97097.03;;;13.07;51.02
48041;BME280;33815;48.386;11.738;2023-04-10T10:15:33;97088.97;;;13.27;49.82
48041;BME280;33815;48.386;11.738;2023-04-10T10:18:08;97098.72;;;13.69;52.70
48041;BME280;33815;48.386;11.738;2023-04-10T10:20:37;97079.72;;;13.67;49.41
48041;BME280;33815;48.386;11.738;2023-04-10T10:23:06;97066.19;;;13.37;50.01
48041;BME280;33815;48.386;11.738;2023-04-10T10:25:34;97071.97;;;13.92;51.61
48041;BME280;33815;48.386;11.738;2023-04-10T10:28:02;97062.28;;;13.92;50.76
48041;BME280;33815;48.386;11.738;2023-04-10T10:30:30;97068.09;;;14.29;51.49
48041;BME280;33815;48.386;11.738;2023-04-10T10:32:57;97066.63;;;14.26;49.43
48041;BME280;33815;48.386;11.738;2023-04-10T10:35:25;97058.97;;;14.49;48.70
48041;BME280;33815;48.386;11.738;2023-04-10T10:37:51;97053.59;;;14.67;50.07
48041;BME280;33815;48.386;11.738;2023-04-10T10:40:44;97046.72;;;13.91;47.18
48041;BME280;33815;48.386;11.738;2023-04-10T10:43:49;97042.97;;;13.93;47.15
48041;BME280;33815;48.386;11.738;2023-04-10T10:46:33;97043.69;;;14.53;49.97
48041;BME280;33815;48.386;11.738;2023-04-10T10:48:59;97041.09;;;14.94;48.69
48041;BME280;33815;48.386;11.738;2023-04-10T10:51:42;97037.25;;;15.21;47.62
48041;BME280;33815;48.386;11.738;2023-04-10T10:54:32;97021.91;;;14.85;47.41
48041;BME280;33815;48.386;11.738;2023-04-10T10:56:58;97032.69;;;15.23;50.59
48041;BME280;33815;48.386;11.738;2023-04-10T11:02:17;97014.53;;;14.48;45.47
48041;BME280;33815;48.386;11.738;2023-04-10T11:04:43;97016.13;;;13.99;48.21
48041;BME280;33815;48.386;11.738;2023-04-10T11:07:09;97012.41;;;14.27;48.84
48041;BME280;33815;48.386;11.738;2023-04-10T11:09:48;97010.41;;;15.03;47.35
48041;BME280;33815;48.386;11.738;2023-04-10T11:12:15;97001.91;;;14.93;47.83
48041;BME280;33815;48.386;11.738;2023-04-10T11:14:42;97000.16;;;15.24;47.96
48041;BME280;33815;48.386;11.738;2023-04-10T11:17:09;96992.53;;;15.46;46.58
48041;BME280;33815;48.386;11.738;2023-04-10T11:19:59;96989.34;;;15.59;45.75
48041;BME280;33815;48.386;11.738;2023-04-10T11:22:25;96982.41;;;15.35;46.62
48041;BME280;33815;48.386;11.738;2023-04-10T11:27:40;96985.34;;;16.03;45.24
48041;BME280;33815;48.386;11.738;2023-04-10T11:30:30;96968.44;;;15.74;43.24
48041;BME280;33815;48.386;11.738;2023-04-10T11:32:57;96974.38;;;15.68;44.91
48041;BME280;33815;48.386;11.738;2023-04-10T11:35:22;96944.78;;;15.42;47.65
48041;BME280;33815;48.386;11.738;2023-04-10T11:37:47;96971.09;;;15.66;45.54
48041;BME280;33815;48.386;11.738;2023-04-10T11:40:13;96964.13;;;15.41;43.35
48041;BME280;33815;48.386;11.738;2023-04-10T11:42:38;96967.44;;;15.04;45.88
48041;BME280;33815;48.386;11.738;2023-04-10T11:45:26;96970.63;;;15.22;45.16
48041;BME280;33815;48.386;11.738;2023-04-10T11:47:52;96960.34;;;15.44;44.95
48041;BME280;33815;48.386;11.738;2023-04-10T11:50:18;96946.50;;;15.58;43.81
48041;BME280;33815;48.386;11.738;2023-04-10T11:52:45;96948.19;;;16.06;45.14
48041;BME280;33815;48.386;11.738;2023-04-10T11:55:10;96933.06;;;16.08;42.87
48041;BME280;33815;48.386;11.738;2023-04-10T11:57:36;96945.88;;;16.49;44.26
48041;BME280;33815;48.386;11.738;2023-04-10T12:00:01;96931.78;;;16.04;42.54
48041;BME280;33815;48.386;11.738;2023-04-10T12:02:27;96926.97;;;16.31;42.98
48041;BME280;33815;48.386;11.738;2023-04-10T12:04:58;96921.47;;;16.70;40.58
48041;BME280;33815;48.386;11.738;2023-04-10T12:07:23;96916.81;;;16.95;39.53
48041;BME280;33815;48.386;11.738;2023-04-10T12:09:59;96906.78;;;16.76;37.92
48041;BME280;33815;48.386;11.738;2023-04-10T12:12:34;96911.59;;;16.72;38.34
48041;BME280;33815;48.386;11.738;2023-04-10T12:15:02;96883.16;;;16.23;38.89
48041;BME280;33815;48.386;11.738;2023-04-10T12:17:28;96908.66;;;16.90;40.27
48041;BME280;33815;48.386;11.738;2023-04-10T12:19:54;96915.44;;;16.85;41.09
48041;BME280;33815;48.386;11.738;2023-04-10T12:22:19;96885.91;;;16.74;41.07
48041;BME280;33815;48.386;11.738;2023-04-10T12:24:49;96898.63;;;16.71;36.12
48041;BME280;33815;48.386;11.738;2023-04-10T12:27:19;96870.38;;;16.65;35.92
48041;BME280;33815;48.386;11.738;2023-04-10T12:29:46;96886.91;;;16.58;35.27
48041;BME280;33815;48.386;11.738;2023-04-10T12:32:12;96900.38;;;16.93;38.85
48041;BME280;33815;48.386;11.738;2023-04-10T12:34:38;96885.41;;;16.94;36.15
48041;BME280;33815;48.386;11.738;2023-04-10T12:37:03;96890.47;;;17.10;37.89
48041;BME280;33815;48.386;11.738;2023-04-10T12:39:29;96898.16;;;17.63;39.06
48041;BME280;33815;48.386;11.738;2023-04-10T12:42:14;96872.09;;;17.54;35.63
48041;BME280;33815;48.386;11.738;2023-04-10T12:44:56;96852.47;;;17.56;37.39
48041;BME280;33815;48.386;11.738;2023-04-10T12:47:23;96879.16;;;18.40;36.59
48041;BME280;33815;48.386;11.738;2023-04-10T12:50:18;96870.66;;;18.44;35.54
48041;BME280;33815;48.386;11.738;2023-04-10T12:53:04;96872.19;;;18.04;34.52
48041;BME280;33815;48.386;11.738;2023-04-10T12:55:34;96857.53;;;18.23;35.24
48041;BME280;33815;48.386;11.738;2023-04-10T12:58:15;96850.03;;;17.98;33.38
48041;BME280;33815;48.386;11.738;2023-04-10T13:00:47;96841.56;;;18.03;34.14
48041;BME280;33815;48.386;11.738;2023-04-10T13:03:12;96845.31;;;17.13;34.68
48041;BME280;33815;48.386;11.738;2023-04-10T13:05:38;96844.41;;;17.21;33.93